sensor_id;sensor_type;location;lat;lon;timestamp;temperature;humidity
15288;DHT22;7745;48.708;9.026;2023-02-11T00:00:53;-2.50;99.90
15288;DHT22;7745;48.708;9.026;2023-02-11T00:03:20;-2.50;99.90
15288;DHT22;7745;48.708;9.026;2023-02-11T00:05:56;-2.50;99.90
15288;DHT22;7745;48.708;9.026;2023-02-11T00:08:23;-2.50;99.90
15288;DHT22;7745;48.708;9.026;2023-02-11T00:10:52;-2.10;99.90
15288;DHT22;7745;48.708;9.026;2023-02-11T00:13:19;-2.50;99.90
15288;DHT22;7745;48.708;9.026;2023-02-11T00:15:46;-2.60;99.90
15288;DHT22;7745;48.708;9.026;2023-02-11T00:18:13;-2.50;99.90
15288;DHT22;7745;48.708;9.026;2023-02-11T00:20:40;-2.50;99.90
15288;DHT22;7745;48.708;9.026;2023-02-11T00:23:07;-2.50;99.90
15288;DHT22;7745;48.708;9.026;2023-02-11T00:25:38;-2.50;99.90
15288;DHT22;7745;48.708;9.026;2023-02-11T00:28:06;-2.50;99.90
15288;DHT22;7745;48.708;9.026;2023-02-11T00:30:33;-2.60;99.90
15288;DHT22;7745;48.708;9.026;2023-02-11T00:33:00;-2.60;99.90
15288;DHT22;7745;48.708;9.026;2023-02-11T00:35:27;-2.60;99.90
15288;DHT22;7745;48.708;9.026;2023-02-11T00:37:54;-2.60;99.90
15288;DHT22;7745;48.708;9.026;2023-02-11T00:40:21;-2.70;99.90
15288;DHT22;7745;48.708;9.026;2023-02-11T00:42:48;-2.70;99.90
15288;DHT22;7745;48.708;9.026;2023-02-11T00:45:16;-2.70;99.90
15288;DHT22;7745;48.708;9.026;2023-02-11T00:47:45;-2.70;99.90
15288;DHT22;7745;48.708;9.026;2023-02-11T00:50:12;-2.70;99.90
15288;DHT22;7745;48.708;9.026;2023-02-11T00:52:39;-2.70;99.90
15288;DHT22;7745;48.708;9.026;2023-02-11T00:55:06;-2.70;99.90
15288;DHT22;7745;48.708;9.026;2023-02-11T00:57:33;-2.70;99.90
15288;DHT22;7745;48.708;9.026;2023-02-11T01:00:00;-2.70;99.90
15288;DHT22;7745;48.708;9.026;2023-02-11T01:02:28;-2.70;99.90
15288;DHT22;7745;48.708;9.026;2023-02-11T01:04:55;-2.70;99.90
15288;DHT22;7745;48.708;9.026;2023-02-11T01:07:24;-2.70;99.90
15288;DHT22;7745;48.708;9.026;2023-02-11T01:09:50;-2.70;99.90
15288;DHT22;7745;48.708;9.026;2023-02-11T01:12:17;-2.80;99.90
15288;DHT22;7745;48.708;9.026;2023-02-11T01:14:44;-2.80;99.90
15288;DHT22;7745;48.708;9.026;2023-02-11T01:17:11;-2.80;99.90
15288;DHT22;7745;48.708;9.026;2023-02-11T01:19:39;-2.80;99.90
15288;DHT22;7745;48.708;9.026;2023-02-11T01:22:06;-2.80;99.90
15288;DHT22;7745;48.708;9.026;2023-02-11T01:24:33;-2.80;99.90
15288;DHT22;7745;48.708;9.026;2023-02-11T01:26:59;-2.80;99.90
15288;DHT22;7745;48.708;9.026;2023-02-11T01:29:29;-2.80;99.90
15288;DHT22;7745;48.708;9.026;2023-02-11T01:31:56;-2.90;99.90
15288;DHT22;7745;48.708;9.026;2023-02-11T01:34:23;-2.90;99.90
15288;DHT22;7745;48.708;9.026;2023-02-11T01:36:55;-2.90;99.90
15288;DHT22;7745;48.708;9.026;2023-02-11T01:39:22;-2.90;99.90
15288;DHT22;7745;48.708;9.026;2023-02-11T01:41:49;-2.90;99.90
15288;DHT22;7745;48.708;9.026;2023-02-11T01:44:25;-2.90;99.90
15288;DHT22;7745;48.708;9.026;2023-02-11T01:46:52;-2.90;99.90
15288;DHT22;7745;48.708;9.026;2023-02-11T01:49:21;-2.90;99.90
15288;DHT22;7745;48.708;9.026;2023-02-11T01:51:54;-2.90;99.90
15288;DHT22;7745;48.708;9.026;2023-02-11T01:54:25;-2.90;99.90
15288;DHT22;7745;48.708;9.026;2023-02-11T01:57:14;-2.90;99.90
15288;DHT22;7745;48.708;9.026;2023-02-11T01:59:53;-2.90;99.90
15288;DHT22;7745;48.708;9.026;2023-02-11T02:02:25;-2.90;99.90
15288;DHT22;7745;48.708;9.026;2023-02-11T02:04:56;-2.90;99.90
15288;DHT22;7745;48.708;9.026;2023-02-11T02:07:29;-2.90;99.90
15288;DHT22;7745;48.708;9.026;2023-02-11T02:10:03;-2.90;99.90
15288;DHT22;7745;48.708;9.026;2023-02-11T02:12:31;-2.90;99.90
15288;DHT22;7745;48.708;9.026;2023-02-11T02:15:26;-2.90;99.90
15288;DHT22;7745;48.708;9.026;2023-02-11T02:18:01;-2.90;99.90
15288;DHT22;7745;48.708;9.026;2023-02-11T02:27:01;-2.90;99.90
15288;DHT22;7745;48.708;9.026;2023-02-11T02:32:46;-2.90;99.90
15288;DHT22;7745;48.708;9.026;2023-02-11T02:35:23;-2.90;99.90
15288;DHT22;7745;48.708;9.026;2023-02-11T02:37:56;-3.00;99.90
15288;DHT22;7745;48.708;9.026;2023-02-11T02:40:28;-3.10;99.90
15288;DHT22;7745;48.708;9.026;2023-02-11T02:42:57;-3.00;99.90
15288;DHT22;7745;48.708;9.026;2023-02-11T02:45:26;-3.00;99.90
15288;DHT22;7745;48.708;9.026;2023-02-11T02:47:54;-3.00;99.90
15288;DHT22;7745;48.708;9.026;2023-02-11T02:50:25;-3.00;99.90
15288;DHT22;7745;48.708;9.026;2023-02-11T02:53:02;-3.00;99.90
15288;DHT22;7745;48.708;9.026;2023-02-11T02:55:41;-3.10;99.90
15288;DHT22;7745;48.708;9.026;2023-02-11T02:58:44;-3.00;99.90
15288;DHT22;7745;48.708;9.026;2023-02-11T03:01:22;-3.00;99.90
15288;DHT22;7745;48.708;9.026;2023-02-11T03:03:58;-3.00;99.90
15288;DHT22;7745;48.708;9.026;2023-02-11T03:06:30;-3.00;99.90
15288;DHT22;7745;48.708;9.026;2023-02-11T03:09:03;-3.00;99.90
15288;DHT22;7745;48.708;9.026;2023-02-11T03:11:32;-3.00;99.90
15288;DHT22;7745;48.708;9.026;2023-02-11T03:14:01;-3.00;99.90
15288;DHT22;7745;48.708;9.026;2023-02-11T03:16:29;-3.00;99.90
15288;DHT22;7745;48.708;9.026;2023-02-11T03:19:06;-3.00;99.90
15288;DHT22;7745;48.708;9.026;2023-02-11T03:21:36;-3.00;99.90
15288;DHT22;7745;48.708;9.026;2023-02-11T03:24:07;-3.00;99.90
15288;DHT22;7745;48.708;9.026;2023-02-11T03:26:37;-3.00;99.90
15288;DHT22;7745;48.708;9.026;2023-02-11T03:29:10;-3.00;99.90
15288;DHT22;7745;48.708;9.026;2023-02-11T03:31:45;-3.00;99.90
15288;DHT22;7745;48.708;9.026;2023-02-11T03:34:18;-3.00;99.90
15288;DHT22;7745;48.708;9.026;2023-02-11T03:36:51;-3.00;99.90
15288;DHT22;7745;48.708;9.026;2023-02-11T03:39:24;-3.00;99.90
15288;DHT22;7745;48.708;9.026;2023-02-11T03:41:55;-3.00;99.90
15288;DHT22;7745;48.708;9.026;2023-02-11T03:44:27;-3.00;99.90
15288;DHT22;7745;48.708;9.026;2023-02-11T03:46:55;-3.00;99.90
15288;DHT22;7745;48.708;9.026;2023-02-11T03:49:26;-3.00;99.90
15288;DHT22;7745;48.708;9.026;2023-02-11T03:51:54;-3.00;99.90
15288;DHT22;7745;48.708;9.026;2023-02-11T03:54:26;-3.00;99.90
15288;DHT22;7745;48.708;9.026;2023-02-11T03:56:56;-2.90;99.90
15288;DHT22;7745;48.708;9.026;2023-02-11T03:59:23;-2.90;99.90
15288;DHT22;7745;48.708;9.026;2023-02-11T04:01:50;-2.90;99.90
15288;DHT22;7745;48.708;9.026;2023-02-11T04:04:18;-2.90;99.90
15288;DHT22;7745;48.708;9.026;2023-02-11T04:06:46;-2.80;99.90
15288;DHT22;7745;48.708;9.026;2023-02-11T04:09:13;-2.80;99.90
15288;DHT22;7745;48.708;9.026;2023-02-11T04:11:40;-2.80;99.90
15288;DHT22;7745;48.708;9.026;2023-02-11T04:14:07;-2.80;99.90
15288;DHT22;7745;48.708;9.026;2023-02-11T04:16:34;-2.80;99.90
15288;DHT22;7745;48.708;9.026;2023-02-11T04:19:01;-2.80;99.90
15288;DHT22;7745;48.708;9.026;2023-02-11T04:21:27;-2.70;99.90
15288;DHT22;7745;48.708;9.026;2023-02-11T04:23:56;-2.70;99.90
15288;DHT22;7745;48.708;9.026;2023-02-11T04:26:22;-2.60;99.90
15288;DHT22;7745;48.708;9.026;2023-02-11T04:28:49;-2.50;99.90
15288;DHT22;7745;48.708;9.026;2023-02-11T04:31:16;-2.50;99.90
15288;DHT22;7745;48.708;9.026;2023-02-11T04:33:43;-2.40;99.90
15288;DHT22;7745;48.708;9.026;2023-02-11T04:36:09;-2.40;99.90
15288;DHT22;7745;48.708;9.026;2023-02-11T04:38:36;-2.40;99.90
15288;DHT22;7745;48.708;9.026;2023-02-11T04:41:04;-2.40;99.90
15288;DHT22;7745;48.708;9.026;2023-02-11T04:43:31;-2.40;99.90
15288;DHT22;7745;48.708;9.026;2023-02-11T04:45:58;-2.40;99.90
15288;DHT22;7745;48.708;9.026;2023-02-11T04:48:25;-2.40;99.90
15288;DHT22;7745;48.708;9.026;2023-02-11T04:50:52;-2.40;99.90
15288;DHT22;7745;48.708;9.026;2023-02-11T04:53:19;-2.30;99.90
15288;DHT22;7745;48.708;9.026;2023-02-11T04:55:47;-2.30;99.90
15288;DHT22;7745;48.708;9.026;2023-02-11T04:58:15;-2.30;99.90
15288;DHT22;7745;48.708;9.026;2023-02-11T05:00:44;-2.20;99.90
15288;DHT22;7745;48.708;9.026;2023-02-11T05:03:11;-2.20;99.90
15288;DHT22;7745;48.708;9.026;2023-02-11T05:05:38;-2.10;99.90
15288;DHT22;7745;48.708;9.026;2023-02-11T05:08:05;-2.10;99.90
15288;DHT22;7745;48.708;9.026;2023-02-11T05:10:32;-2.10;99.90
15288;DHT22;7745;48.708;9.026;2023-02-11T05:12:59;-2.00;99.90
15288;DHT22;7745;48.708;9.026;2023-02-11T05:15:28;-2.00;99.90
15288;DHT22;7745;48.708;9.026;2023-02-11T05:17:55;-1.60;99.90
15288;DHT22;7745;48.708;9.026;2023-02-11T05:20:22;-1.90;99.90
15288;DHT22;7745;48.708;9.026;2023-02-11T05:22:49;-1.90;99.90
15288;DHT22;7745;48.708;9.026;2023-02-11T05:25:16;-1.80;99.90
15288;DHT22;7745;48.708;9.026;2023-02-11T05:27:43;-1.40;99.90
15288;DHT22;7745;48.708;9.026;2023-02-11T05:30:10;-1.80;99.90
15288;DHT22;7745;48.708;9.026;2023-02-11T05:32:38;-1.80;99.90
15288;DHT22;7745;48.708;9.026;2023-02-11T05:35:05;-1.70;99.90
15288;DHT22;7745;48.708;9.026;2023-02-11T05:37:32;-1.70;99.90
15288;DHT22;7745;48.708;9.026;2023-02-11T05:39:59;-1.70;99.90
15288;DHT22;7745;48.708;9.026;2023-02-11T05:42:26;-1.60;99.90
15288;DHT22;7745;48.708;9.026;2023-02-11T05:44:52;-1.60;99.90
15288;DHT22;7745;48.708;9.026;2023-02-11T05:47:19;-1.60;99.90
15288;DHT22;7745;48.708;9.026;2023-02-11T05:49:47;-1.50;99.90
15288;DHT22;7745;48.708;9.026;2023-02-11T05:52:14;-1.40;99.90
15288;DHT22;7745;48.708;9.026;2023-02-11T05:54:41;-1.40;99.90
15288;DHT22;7745;48.708;9.026;2023-02-11T05:57:08;-1.30;99.90
15288;DHT22;7745;48.708;9.026;2023-02-11T05:59:35;-1.30;99.90
15288;DHT22;7745;48.708;9.026;2023-02-11T06:02:01;-1.30;99.90
15288;DHT22;7745;48.708;9.026;2023-02-11T06:04:28;-1.20;99.90
15288;DHT22;7745;48.708;9.026;2023-02-11T06:06:57;-1.20;99.90
15288;DHT22;7745;48.708;9.026;2023-02-11T06:09:23;-1.10;99.90
15288;DHT22;7745;48.708;9.026;2023-02-11T06:11:50;-1.10;99.90
15288;DHT22;7745;48.708;9.026;2023-02-11T06:14:18;-1.10;99.90
15288;DHT22;7745;48.708;9.026;2023-02-11T06:16:45;-1.10;99.90
15288;DHT22;7745;48.708;9.026;2023-02-11T06:19:12;-1.10;99.90
15288;DHT22;7745;48.708;9.026;2023-02-11T06:21:39;-1.00;99.90
15288;DHT22;7745;48.708;9.026;2023-02-11T06:24:08;-1.00;99.90
15288;DHT22;7745;48.708;9.026;2023-02-11T06:26:34;-1.00;99.90
15288;DHT22;7745;48.708;9.026;2023-02-11T06:29:01;-1.00;99.90
15288;DHT22;7745;48.708;9.026;2023-02-11T06:31:28;-1.00;99.90
15288;DHT22;7745;48.708;9.026;2023-02-11T06:33:55;-1.00;99.90
15288;DHT22;7745;48.708;9.026;2023-02-11T06:36:22;-1.00;99.90
15288;DHT22;7745;48.708;9.026;2023-02-11T06:38:49;-1.00;99.90
15288;DHT22;7745;48.708;9.026;2023-02-11T06:41:18;-1.00;99.90
15288;DHT22;7745;48.708;9.026;2023-02-11T06:43:47;-1.00;99.90
15288;DHT22;7745;48.708;9.026;2023-02-11T06:46:14;-1.00;99.90
15288;DHT22;7745;48.708;9.026;2023-02-11T06:48:41;-1.00;99.90
15288;DHT22;7745;48.708;9.026;2023-02-11T06:51:09;-1.00;99.90
15288;DHT22;7745;48.708;9.026;2023-02-11T06:53:38;-1.00;99.90
15288;DHT22;7745;48.708;9.026;2023-02-11T06:56:07;-1.00;99.90
15288;DHT22;7745;48.708;9.026;2023-02-11T06:58:36;-0.90;99.90
15288;DHT22;7745;48.708;9.026;2023-02-11T07:01:03;-0.90;99.90
15288;DHT22;7745;48.708;9.026;2023-02-11T07:03:32;-0.80;99.90
15288;DHT22;7745;48.708;9.026;2023-02-11T07:05:59;-0.80;99.90
15288;DHT22;7745;48.708;9.026;2023-02-11T07:08:27;-0.70;99.90
15288;DHT22;7745;48.708;9.026;2023-02-11T07:10:54;-0.70;99.90
15288;DHT22;7745;48.708;9.026;2023-02-11T07:13:21;0.00;99.90
15288;DHT22;7745;48.708;9.026;2023-02-11T07:15:49;-0.60;99.90
15288;DHT22;7745;48.708;9.026;2023-02-11T07:18:16;-0.60;99.90
15288;DHT22;7745;48.708;9.026;2023-02-11T07:20:43;-0.50;99.90
15288;DHT22;7745;48.708;9.026;2023-02-11T07:23:10;-0.50;99.90
15288;DHT22;7745;48.708;9.026;2023-02-11T07:25:36;-0.50;99.90
15288;DHT22;7745;48.708;9.026;2023-02-11T07:28:03;-0.70;99.90
15288;DHT22;7745;48.708;9.026;2023-02-11T07:30:30;-0.40;99.90
15288;DHT22;7745;48.708;9.026;2023-02-11T07:32:58;-0.40;99.90
15288;DHT22;7745;48.708;9.026;2023-02-11T07:35:25;-0.40;99.90
15288;DHT22;7745;48.708;9.026;2023-02-11T07:37:52;-0.40;99.90
15288;DHT22;7745;48.708;9.026;2023-02-11T07:40:19;-0.40;99.90
15288;DHT22;7745;48.708;9.026;2023-02-11T07:42:46;-0.40;99.90
15288;DHT22;7745;48.708;9.026;2023-02-11T07:45:13;-0.30;99.90
15288;DHT22;7745;48.708;9.026;2023-02-11T07:47:40;-0.20;99.90
15288;DHT22;7745;48.708;9.026;2023-02-11T07:50:09;-0.10;99.90
15288;DHT22;7745;48.708;9.026;2023-02-11T07:52:36;0.00;99.90
15288;DHT22;7745;48.708;9.026;2023-02-11T07:55:03;0.10;99.90
15288;DHT22;7745;48.708;9.026;2023-02-11T07:57:30;0.20;99.90
15288;DHT22;7745;48.708;9.026;2023-02-11T07:59:57;0.30;99.90
15288;DHT22;7745;48.708;9.026;2023-02-11T08:02:24;0.40;99.90
15288;DHT22;7745;48.708;9.026;2023-02-11T08:04:51;1.00;99.90
15288;DHT22;7745;48.708;9.026;2023-02-11T08:07:19;0.50;99.90
15288;DHT22;7745;48.708;9.026;2023-02-11T08:09:46;0.50;99.90
15288;DHT22;7745;48.708;9.026;2023-02-11T08:12:12;0.80;99.90
15288;DHT22;7745;48.708;9.026;2023-02-11T08:14:39;0.60;99.90
15288;DHT22;7745;48.708;9.026;2023-02-11T08:17:08;0.60;99.90
15288;DHT22;7745;48.708;9.026;2023-02-11T08:19:35;0.70;99.90
15288;DHT22;7745;48.708;9.026;2023-02-11T08:22:02;0.80;99.90
15288;DHT22;7745;48.708;9.026;2023-02-11T08:24:30;0.80;99.90
15288;DHT22;7745;48.708;9.026;2023-02-11T08:26:57;0.90;99.90
15288;DHT22;7745;48.708;9.026;2023-02-11T08:29:25;0.90;99.90
15288;DHT22;7745;48.708;9.026;2023-02-11T08:31:53;1.10;99.90
15288;DHT22;7745;48.708;9.026;2023-02-11T08:34:19;1.10;99.90
15288;DHT22;7745;48.708;9.026;2023-02-11T08:36:47;1.10;99.90
15288;DHT22;7745;48.708;9.026;2023-02-11T08:39:16;1.20;99.90
15288;DHT22;7745;48.708;9.026;2023-02-11T08:41:45;1.70;99.90
15288;DHT22;7745;48.708;9.026;2023-02-11T08:44:15;1.30;99.90
15288;DHT22;7745;48.708;9.026;2023-02-11T08:46:42;1.40;99.90
15288;DHT22;7745;48.708;9.026;2023-02-11T08:49:09;1.40;99.90
15288;DHT22;7745;48.708;9.026;2023-02-11T08:51:36;1.50;99.90
15288;DHT22;7745;48.708;9.026;2023-02-11T08:54:03;1.50;99.90
15288;DHT22;7745;48.708;9.026;2023-02-11T08:56:34;1.80;99.90
15288;DHT22;7745;48.708;9.026;2023-02-11T08:59:02;1.50;99.90
15288;DHT22;7745;48.708;9.026;2023-02-11T09:01:30;1.50;99.90
15288;DHT22;7745;48.708;9.026;2023-02-11T09:03:58;1.50;99.90
15288;DHT22;7745;48.708;9.026;2023-02-11T09:06:26;1.50;99.90
15288;DHT22;7745;48.708;9.026;2023-02-11T09:08:55;1.60;99.90
15288;DHT22;7745;48.708;9.026;2023-02-11T09:11:25;1.70;99.90
15288;DHT22;7745;48.708;9.026;2023-02-11T09:13:52;1.80;99.90
15288;DHT22;7745;48.708;9.026;2023-02-11T09:16:22;1.90;99.90
15288;DHT22;7745;48.708;9.026;2023-02-11T09:18:50;2.00;99.90
15288;DHT22;7745;48.708;9.026;2023-02-11T09:21:18;2.00;99.90
15288;DHT22;7745;48.708;9.026;2023-02-11T09:23:46;2.00;99.90
15288;DHT22;7745;48.708;9.026;2023-02-11T09:26:15;2.10;99.90
15288;DHT22;7745;48.708;9.026;2023-02-11T09:28:42;2.20;99.90
15288;DHT22;7745;48.708;9.026;2023-02-11T09:31:12;2.20;99.90
15288;DHT22;7745;48.708;9.026;2023-02-11T09:33:43;2.40;99.90
15288;DHT22;7745;48.708;9.026;2023-02-11T09:36:13;2.60;99.90
15288;DHT22;7745;48.708;9.026;2023-02-11T09:38:41;2.90;99.90
15288;DHT22;7745;48.708;9.026;2023-02-11T09:41:24;2.60;99.90
15288;DHT22;7745;48.708;9.026;2023-02-11T09:43:56;2.70;99.90
15288;DHT22;7745;48.708;9.026;2023-02-11T09:46:26;2.80;99.90
15288;DHT22;7745;48.708;9.026;2023-02-11T09:48:56;2.90;99.90
15288;DHT22;7745;48.708;9.026;2023-02-11T09:51:30;3.00;99.90
15288;DHT22;7745;48.708;9.026;2023-02-11T09:54:03;3.10;99.90
15288;DHT22;7745;48.708;9.026;2023-02-11T09:56:31;3.20;99.90
15288;DHT22;7745;48.708;9.026;2023-02-11T09:58:58;3.20;99.90
15288;DHT22;7745;48.708;9.026;2023-02-11T10:01:30;3.30;99.90
15288;DHT22;7745;48.708;9.026;2023-02-11T10:04:06;3.40;99.90
15288;DHT22;7745;48.708;9.026;2023-02-11T10:06:42;3.80;99.90
15288;DHT22;7745;48.708;9.026;2023-02-11T10:09:34;3.50;99.90
15288;DHT22;7745;48.708;9.026;2023-02-11T10:12:15;3.60;99.90
15288;DHT22;7745;48.708;9.026;2023-02-11T10:15:12;3.60;99.90
15288;DHT22;7745;48.708;9.026;2023-02-11T10:17:56;3.70;99.90
15288;DHT22;7745;48.708;9.026;2023-02-11T10:20:31;3.80;99.90
15288;DHT22;7745;48.708;9.026;2023-02-11T10:23:00;3.90;99.90
15288;DHT22;7745;48.708;9.026;2023-02-11T10:25:33;4.00;99.90
15288;DHT22;7745;48.708;9.026;2023-02-11T10:28:11;4.10;99.90
15288;DHT22;7745;48.708;9.026;2023-02-11T10:30:42;4.20;99.90
15288;DHT22;7745;48.708;9.026;2023-02-11T10:33:18;4.40;99.90
15288;DHT22;7745;48.708;9.026;2023-02-11T10:35:47;4.40;99.90
15288;DHT22;7745;48.708;9.026;2023-02-11T10:38:14;4.50;99.90
15288;DHT22;7745;48.708;9.026;2023-02-11T10:40:41;4.50;99.90
15288;DHT22;7745;48.708;9.026;2023-02-11T10:43:11;4.90;99.90
15288;DHT22;7745;48.708;9.026;2023-02-11T10:45:42;4.60;99.90
15288;DHT22;7745;48.708;9.026;2023-02-11T10:48:34;4.60;99.90
15288;DHT22;7745;48.708;9.026;2023-02-11T10:51:11;4.70;99.90
15288;DHT22;7745;48.708;9.026;2023-02-11T10:53:41;4.80;99.90
15288;DHT22;7745;48.708;9.026;2023-02-11T10:56:11;4.90;99.90
15288;DHT22;7745;48.708;9.026;2023-02-11T10:58:41;4.90;99.90
15288;DHT22;7745;48.708;9.026;2023-02-11T11:01:10;4.90;99.90
15288;DHT22;7745;48.708;9.026;2023-02-11T11:03:38;4.90;99.90
15288;DHT22;7745;48.708;9.026;2023-02-11T11:06:12;5.00;99.90
15288;DHT22;7745;48.708;9.026;2023-02-11T11:08:41;5.00;99.90
15288;DHT22;7745;48.708;9.026;2023-02-11T11:11:10;5.20;99.90
15288;DHT22;7745;48.708;9.026;2023-02-11T11:13:39;5.20;99.90
15288;DHT22;7745;48.708;9.026;2023-02-11T11:19:35;5.30;99.90
15288;DHT22;7745;48.708;9.026;2023-02-11T11:22:05;5.50;99.90
15288;DHT22;7745;48.708;9.026;2023-02-11T11:24:36;5.50;99.90
15288;DHT22;7745;48.708;9.026;2023-02-11T11:27:16;5.50;99.90
15288;DHT22;7745;48.708;9.026;2023-02-11T11:29:45;5.50;99.90
15288;DHT22;7745;48.708;9.026;2023-02-11T11:32:19;5.50;99.90
15288;DHT22;7745;48.708;9.026;2023-02-11T11:34:51;5.40;99.90
15288;DHT22;7745;48.708;9.026;2023-02-11T11:37:23;5.50;99.90
15288;DHT22;7745;48.708;9.026;2023-02-11T11:39:55;5.50;99.90
15288;DHT22;7745;48.708;9.026;2023-02-11T11:42:28;5.60;99.90
15288;DHT22;7745;48.708;9.026;2023-02-11T11:44:57;5.50;99.90
15288;DHT22;7745;48.708;9.026;2023-02-11T11:47:28;5.60;99.90
15288;DHT22;7745;48.708;9.026;2023-02-11T11:50:24;5.50;99.90
15288;DHT22;7745;48.708;9.026;2023-02-11T11:52:58;5.80;99.90
15288;DHT22;7745;48.708;9.026;2023-02-11T11:55:28;6.00;99.90
15288;DHT22;7745;48.708;9.026;2023-02-11T11:57:57;6.10;99.90
15288;DHT22;7745;48.708;9.026;2023-02-11T12:00:30;6.30;99.90
15288;DHT22;7745;48.708;9.026;2023-02-11T12:03:29;6.40;99.90
15288;DHT22;7745;48.708;9.026;2023-02-11T12:06:23;6.50;99.90
15288;DHT22;7745;48.708;9.026;2023-02-11T12:09:04;6.50;99.90
15288;DHT22;7745;48.708;9.026;2023-02-11T12:11:44;6.60;99.90
15288;DHT22;7745;48.708;9.026;2023-02-11T12:14:23;6.60;99.90
15288;DHT22;7745;48.708;9.026;2023-02-11T12:16:57;6.60;99.90
15288;DHT22;7745;48.708;9.026;2023-02-11T12:19:45;6.70;99.90
15288;DHT22;7745;48.708;9.026;2023-02-11T12:22:24;6.80;99.90
15288;DHT22;7745;48.708;9.026;2023-02-11T12:25:05;6.80;99.90
15288;DHT22;7745;48.708;9.026;2023-02-11T12:27:47;6.90;99.90
15288;DHT22;7745;48.708;9.026;2023-02-11T12:30:28;6.90;99.90
15288;DHT22;7745;48.708;9.026;2023-02-11T12:33:02;6.80;99.90
15288;DHT22;7745;48.708;9.026;2023-02-11T12:35:37;6.80;99.90
15288;DHT22;7745;48.708;9.026;2023-02-11T12:41:24;7.00;99.90
15288;DHT22;7745;48.708;9.026;2023-02-11T12:44:16;7.20;99.90
15288;DHT22;7745;48.708;9.026;2023-02-11T12:46:52;7.20;99.90
15288;DHT22;7745;48.708;9.026;2023-02-11T12:52:23;7.40;99.90
15288;DHT22;7745;48.708;9.026;2023-02-11T12:54:57;7.60;99.90
15288;DHT22;7745;48.708;9.026;2023-02-11T12:57:47;7.80;99.90
15288;DHT22;7745;48.708;9.026;2023-02-11T13:00:16;7.90;99.90
15288;DHT22;7745;48.708;9.026;2023-02-11T13:02:48;8.00;99.90
15288;DHT22;7745;48.708;9.026;2023-02-11T13:05:25;8.10;99.90
15288;DHT22;7745;48.708;9.026;2023-02-11T13:07:56;7.90;99.90
15288;DHT22;7745;48.708;9.026;2023-02-11T13:10:28;8.10;99.90
15288;DHT22;7745;48.708;9.026;2023-02-11T13:12:59;7.90;99.90
15288;DHT22;7745;48.708;9.026;2023-02-11T13:15:45;7.90;99.90
15288;DHT22;7745;48.708;9.026;2023-02-11T13:18:23;7.80;99.90
15288;DHT22;7745;48.708;9.026;2023-02-11T13:20:54;7.80;99.90
15288;DHT22;7745;48.708;9.026;2023-02-11T13:23:24;7.80;99.90
15288;DHT22;7745;48.708;9.026;2023-02-11T13:25:56;7.80;99.90
15288;DHT22;7745;48.708;9.026;2023-02-11T13:28:39;7.90;99.90
15288;DHT22;7745;48.708;9.026;2023-02-11T13:31:09;7.90;99.90
15288;DHT22;7745;48.708;9.026;2023-02-11T13:33:38;8.20;99.90
15288;DHT22;7745;48.708;9.026;2023-02-11T13:36:21;8.00;99.90
15288;DHT22;7745;48.708;9.026;2023-02-11T13:39:00;8.10;99.90
15288;DHT22;7745;48.708;9.026;2023-02-11T13:41:30;8.20;99.90
15288;DHT22;7745;48.708;9.026;2023-02-11T13:44:19;8.20;99.90
15288;DHT22;7745;48.708;9.026;2023-02-11T13:46:56;8.30;99.90
15288;DHT22;7745;48.708;9.026;2023-02-11T13:49:28;8.30;99.90
15288;DHT22;7745;48.708;9.026;2023-02-11T13:51:56;8.30;99.90
15288;DHT22;7745;48.708;9.026;2023-02-11T13:54:27;8.30;99.90
15288;DHT22;7745;48.708;9.026;2023-02-11T14:03:25;8.10;99.90
15288;DHT22;7745;48.708;9.026;2023-02-11T14:06:12;8.20;99.90
15288;DHT22;7745;48.708;9.026;2023-02-11T14:09:04;8.00;99.90
15288;DHT22;7745;48.708;9.026;2023-02-11T14:11:48;8.10;99.90
15288;DHT22;7745;48.708;9.026;2023-02-11T14:14:17;8.10;99.90
15288;DHT22;7745;48.708;9.026;2023-02-11T14:19:49;8.00;99.90
15288;DHT22;7745;48.708;9.026;2023-02-11T14:22:21;8.00;99.90
15288;DHT22;7745;48.708;9.026;2023-02-11T14:24:56;8.00;99.90
15288;DHT22;7745;48.708;9.026;2023-02-11T14:27:27;8.00;99.90
15288;DHT22;7745;48.708;9.026;2023-02-11T14:30:29;8.00;99.90
15288;DHT22;7745;48.708;9.026;2023-02-11T14:33:19;8.00;99.90
15288;DHT22;7745;48.708;9.026;2023-02-11T14:35:59;7.90;99.90
15288;DHT22;7745;48.708;9.026;2023-02-11T14:38:37;7.90;99.90
15288;DHT22;7745;48.708;9.026;2023-02-11T14:41:19;7.90;99.90
15288;DHT22;7745;48.708;9.026;2023-02-11T14:43:49;8.00;99.90
15288;DHT22;7745;48.708;9.026;2023-02-11T14:46:18;7.80;99.90
15288;DHT22;7745;48.708;9.026;2023-02-11T14:48:46;7.80;99.90
15288;DHT22;7745;48.708;9.026;2023-02-11T14:51:18;7.80;99.90
15288;DHT22;7745;48.708;9.026;2023-02-11T14:53:49;7.80;99.90
15288;DHT22;7745;48.708;9.026;2023-02-11T14:56:19;7.80;99.90
15288;DHT22;7745;48.708;9.026;2023-02-11T14:58:48;7.70;99.90
15288;DHT22;7745;48.708;9.026;2023-02-11T15:01:25;7.70;99.90
15288;DHT22;7745;48.708;9.026;2023-02-11T15:03:53;7.70;99.90
15288;DHT22;7745;48.708;9.026;2023-02-11T15:06:24;7.70;99.90
15288;DHT22;7745;48.708;9.026;2023-02-11T15:08:54;7.70;99.90
15288;DHT22;7745;48.708;9.026;2023-02-11T15:11:26;7.60;99.90
15288;DHT22;7745;48.708;9.026;2023-02-11T15:13:55;7.60;99.90
15288;DHT22;7745;48.708;9.026;2023-02-11T15:16:25;7.40;99.90
15288;DHT22;7745;48.708;9.026;2023-02-11T15:18:54;7.40;99.90
15288;DHT22;7745;48.708;9.026;2023-02-11T15:21:25;7.40;99.90
15288;DHT22;7745;48.708;9.026;2023-02-11T15:23:56;7.40;99.90
15288;DHT22;7745;48.708;9.026;2023-02-11T15:26:23;7.40;99.90
15288;DHT22;7745;48.708;9.026;2023-02-11T15:28:50;7.40;99.90
15288;DHT22;7745;48.708;9.026;2023-02-11T15:31:19;7.40;99.90
15288;DHT22;7745;48.708;9.026;2023-02-11T15:33:48;7.30;99.90
15288;DHT22;7745;48.708;9.026;2023-02-11T15:36:16;7.50;99.90
15288;DHT22;7745;48.708;9.026;2023-02-11T15:39:26;7.40;99.90
15288;DHT22;7745;48.708;9.026;2023-02-11T15:41:54;7.40;99.90
15288;DHT22;7745;48.708;9.026;2023-02-11T15:44:29;7.50;99.90
15288;DHT22;7745;48.708;9.026;2023-02-11T15:46:56;7.40;99.90
15288;DHT22;7745;48.708;9.026;2023-02-11T15:49:24;7.60;99.90
15288;DHT22;7745;48.708;9.026;2023-02-11T15:51:52;7.40;99.90
15288;DHT22;7745;48.708;9.026;2023-02-11T15:54:23;7.30;99.90
15288;DHT22;7745;48.708;9.026;2023-02-11T15:56:53;7.20;99.90
15288;DHT22;7745;48.708;9.026;2023-02-11T15:59:24;7.10;99.90
15288;DHT22;7745;48.708;9.026;2023-02-11T16:01:53;6.90;99.90
15288;DHT22;7745;48.708;9.026;2023-02-11T16:04:24;6.80;99.90
15288;DHT22;7745;48.708;9.026;2023-02-11T16:06:52;6.70;99.90
15288;DHT22;7745;48.708;9.026;2023-02-11T16:09:30;6.60;99.90
15288;DHT22;7745;48.708;9.026;2023-02-11T16:12:00;6.50;99.90
15288;DHT22;7745;48.708;9.026;2023-02-11T16:14:31;6.80;99.90
15288;DHT22;7745;48.708;9.026;2023-02-11T16:17:02;6.50;99.90
15288;DHT22;7745;48.708;9.026;2023-02-11T16:19:31;6.40;99.90
15288;DHT22;7745;48.708;9.026;2023-02-11T16:22:01;6.30;99.90
15288;DHT22;7745;48.708;9.026;2023-02-11T16:24:35;6.30;99.90
15288;DHT22;7745;48.708;9.026;2023-02-11T16:27:04;6.20;99.90
15288;DHT22;7745;48.708;9.026;2023-02-11T16:29:34;6.70;99.90
15288;DHT22;7745;48.708;9.026;2023-02-11T16:32:06;6.20;99.90
15288;DHT22;7745;48.708;9.026;2023-02-11T16:34:33;6.20;99.90
15288;DHT22;7745;48.708;9.026;2023-02-11T16:37:02;6.20;99.90
15288;DHT22;7745;48.708;9.026;2023-02-11T16:39:30;6.10;99.90
15288;DHT22;7745;48.708;9.026;2023-02-11T16:41:58;6.10;99.90
15288;DHT22;7745;48.708;9.026;2023-02-11T16:44:25;6.00;99.90
15288;DHT22;7745;48.708;9.026;2023-02-11T16:46:52;6.00;99.90